sensor_id;sensor_type;location;lat;lon;timestamp;temperature;humidity
9752;DHT22;4915;51.226;5.966;2022-07-15T00:02:00;15.50;99.90
9752;DHT22;4915;51.226;5.966;2022-07-15T00:04:27;15.60;99.90
9752;DHT22;4915;51.226;5.966;2022-07-15T00:06:54;15.60;99.90
9752;DHT22;4915;51.226;5.966;2022-07-15T00:09:23;15.70;99.90
9752;DHT22;4915;51.226;5.966;2022-07-15T00:12:10;15.80;99.90
9752;DHT22;4915;51.226;5.966;2022-07-15T00:14:38;15.80;99.90
9752;DHT22;4915;51.226;5.966;2022-07-15T00:17:06;15.90;99.90
9752;DHT22;4915;51.226;5.966;2022-07-15T00:19:34;15.90;99.90
9752;DHT22;4915;51.226;5.966;2022-07-15T00:22:02;16.00;99.90
9752;DHT22;4915;51.226;5.966;2022-07-15T00:24:30;16.00;99.90
9752;DHT22;4915;51.226;5.966;2022-07-15T00:26:57;16.00;99.90
9752;DHT22;4915;51.226;5.966;2022-07-15T00:29:25;16.10;99.90
9752;DHT22;4915;51.226;5.966;2022-07-15T00:31:53;16.10;99.90
9752;DHT22;4915;51.226;5.966;2022-07-15T00:34:21;16.10;99.90
9752;DHT22;4915;51.226;5.966;2022-07-15T00:36:48;16.10;99.90
9752;DHT22;4915;51.226;5.966;2022-07-15T00:39:16;16.10;99.90
9752;DHT22;4915;51.226;5.966;2022-07-15T00:41:45;16.10;99.90
9752;DHT22;4915;51.226;5.966;2022-07-15T00:44:13;16.00;99.90
9752;DHT22;4915;51.226;5.966;2022-07-15T00:46:41;16.00;99.90
9752;DHT22;4915;51.226;5.966;2022-07-15T00:49:09;15.90;99.90
9752;DHT22;4915;51.226;5.966;2022-07-15T00:51:38;15.90;99.90
9752;DHT22;4915;51.226;5.966;2022-07-15T00:54:09;15.90;99.90
9752;DHT22;4915;51.226;5.966;2022-07-15T00:56:38;15.90;99.90
9752;DHT22;4915;51.226;5.966;2022-07-15T00:59:08;15.90;99.90
9752;DHT22;4915;51.226;5.966;2022-07-15T01:01:37;15.80;99.90
9752;DHT22;4915;51.226;5.966;2022-07-15T01:04:05;15.90;99.90
9752;DHT22;4915;51.226;5.966;2022-07-15T01:06:32;15.90;99.90
9752;DHT22;4915;51.226;5.966;2022-07-15T01:08:59;15.80;99.90
9752;DHT22;4915;51.226;5.966;2022-07-15T01:11:27;15.90;99.90
9752;DHT22;4915;51.226;5.966;2022-07-15T01:13:56;15.80;99.90
9752;DHT22;4915;51.226;5.966;2022-07-15T01:16:25;15.70;99.90
9752;DHT22;4915;51.226;5.966;2022-07-15T01:18:53;15.50;99.90
9752;DHT22;4915;51.226;5.966;2022-07-15T01:21:22;15.50;99.90
9752;DHT22;4915;51.226;5.966;2022-07-15T01:23:49;15.40;99.90
9752;DHT22;4915;51.226;5.966;2022-07-15T01:26:16;15.30;99.90
9752;DHT22;4915;51.226;5.966;2022-07-15T01:28:43;15.30;99.90
9752;DHT22;4915;51.226;5.966;2022-07-15T01:31:10;15.20;99.90
9752;DHT22;4915;51.226;5.966;2022-07-15T01:33:38;15.20;99.90
9752;DHT22;4915;51.226;5.966;2022-07-15T01:36:06;15.20;99.90
9752;DHT22;4915;51.226;5.966;2022-07-15T01:38:34;15.10;99.90
9752;DHT22;4915;51.226;5.966;2022-07-15T01:41:02;15.10;99.90
9752;DHT22;4915;51.226;5.966;2022-07-15T01:43:29;15.00;99.90
9752;DHT22;4915;51.226;5.966;2022-07-15T01:45:56;15.00;99.90
9752;DHT22;4915;51.226;5.966;2022-07-15T01:48:23;14.90;99.90
9752;DHT22;4915;51.226;5.966;2022-07-15T01:51:08;14.80;99.90
9752;DHT22;4915;51.226;5.966;2022-07-15T01:53:37;14.70;99.90
9752;DHT22;4915;51.226;5.966;2022-07-15T01:56:04;14.60;99.90
9752;DHT22;4915;51.226;5.966;2022-07-15T01:58:31;14.50;99.90
9752;DHT22;4915;51.226;5.966;2022-07-15T02:00:58;14.50;99.90
9752;DHT22;4915;51.226;5.966;2022-07-15T02:03:25;14.40;99.90
9752;DHT22;4915;51.226;5.966;2022-07-15T02:05:52;14.30;99.90
9752;DHT22;4915;51.226;5.966;2022-07-15T02:08:19;14.30;99.90
9752;DHT22;4915;51.226;5.966;2022-07-15T02:10:48;14.20;99.90
9752;DHT22;4915;51.226;5.966;2022-07-15T02:13:15;14.10;99.90
9752;DHT22;4915;51.226;5.966;2022-07-15T02:15:42;14.10;99.90
9752;DHT22;4915;51.226;5.966;2022-07-15T02:18:09;14.00;99.90
9752;DHT22;4915;51.226;5.966;2022-07-15T02:20:37;14.00;99.90
9752;DHT22;4915;51.226;5.966;2022-07-15T02:23:04;13.90;99.90
9752;DHT22;4915;51.226;5.966;2022-07-15T02:25:33;13.90;99.90
9752;DHT22;4915;51.226;5.966;2022-07-15T02:28:04;13.80;99.90
9752;DHT22;4915;51.226;5.966;2022-07-15T02:30:32;13.80;99.90
9752;DHT22;4915;51.226;5.966;2022-07-15T02:33:00;13.70;99.90
9752;DHT22;4915;51.226;5.966;2022-07-15T02:35:28;13.70;99.90
9752;DHT22;4915;51.226;5.966;2022-07-15T02:37:55;13.60;99.90
9752;DHT22;4915;51.226;5.966;2022-07-15T02:40:23;13.60;99.90
9752;DHT22;4915;51.226;5.966;2022-07-15T02:42:51;13.60;99.90
9752;DHT22;4915;51.226;5.966;2022-07-15T02:45:21;13.60;99.90
9752;DHT22;4915;51.226;5.966;2022-07-15T02:47:49;13.50;99.90
9752;DHT22;4915;51.226;5.966;2022-07-15T02:50:17;13.50;99.90
9752;DHT22;4915;51.226;5.966;2022-07-15T02:52:45;13.50;99.90
9752;DHT22;4915;51.226;5.966;2022-07-15T02:55:12;13.40;99.90
9752;DHT22;4915;51.226;5.966;2022-07-15T02:57:41;13.30;99.90
9752;DHT22;4915;51.226;5.966;2022-07-15T03:00:10;13.30;99.90
9752;DHT22;4915;51.226;5.966;2022-07-15T03:02:39;13.30;99.90
9752;DHT22;4915;51.226;5.966;2022-07-15T03:05:07;13.30;99.90
9752;DHT22;4915;51.226;5.966;2022-07-15T03:07:38;13.30;99.90
9752;DHT22;4915;51.226;5.966;2022-07-15T03:10:07;13.20;99.90
9752;DHT22;4915;51.226;5.966;2022-07-15T03:12:35;13.20;99.90
9752;DHT22;4915;51.226;5.966;2022-07-15T03:15:03;13.20;99.90
9752;DHT22;4915;51.226;5.966;2022-07-15T03:17:31;13.20;99.90
9752;DHT22;4915;51.226;5.966;2022-07-15T03:19:59;13.10;99.90
9752;DHT22;4915;51.226;5.966;2022-07-15T03:22:27;13.10;99.90
9752;DHT22;4915;51.226;5.966;2022-07-15T03:24:57;13.10;99.90
9752;DHT22;4915;51.226;5.966;2022-07-15T03:27:24;13.10;99.90
9752;DHT22;4915;51.226;5.966;2022-07-15T03:29:51;13.10;99.90
9752;DHT22;4915;51.226;5.966;2022-07-15T03:32:21;13.10;99.90
9752;DHT22;4915;51.226;5.966;2022-07-15T03:34:49;13.00;99.90
9752;DHT22;4915;51.226;5.966;2022-07-15T03:37:17;13.00;99.90
9752;DHT22;4915;51.226;5.966;2022-07-15T03:39:44;13.00;99.90
9752;DHT22;4915;51.226;5.966;2022-07-15T03:42:12;13.00;99.90
9752;DHT22;4915;51.226;5.966;2022-07-15T03:44:39;13.00;99.90
9752;DHT22;4915;51.226;5.966;2022-07-15T03:47:06;13.00;99.90
9752;DHT22;4915;51.226;5.966;2022-07-15T03:49:33;13.00;99.90
9752;DHT22;4915;51.226;5.966;2022-07-15T03:52:00;13.00;99.90
9752;DHT22;4915;51.226;5.966;2022-07-15T03:54:28;13.00;99.90
9752;DHT22;4915;51.226;5.966;2022-07-15T03:56:55;13.00;99.90
9752;DHT22;4915;51.226;5.966;2022-07-15T03:59:22;13.00;99.90
9752;DHT22;4915;51.226;5.966;2022-07-15T04:01:49;13.10;99.90
9752;DHT22;4915;51.226;5.966;2022-07-15T04:04:18;13.00;99.90
9752;DHT22;4915;51.226;5.966;2022-07-15T04:06:45;12.90;99.90
9752;DHT22;4915;51.226;5.966;2022-07-15T04:09:12;12.80;99.90
9752;DHT22;4915;51.226;5.966;2022-07-15T04:11:40;12.90;99.90
9752;DHT22;4915;51.226;5.966;2022-07-15T04:14:10;13.00;99.90
9752;DHT22;4915;51.226;5.966;2022-07-15T04:16:37;13.20;99.90
9752;DHT22;4915;51.226;5.966;2022-07-15T04:19:04;13.20;99.90
9752;DHT22;4915;51.226;5.966;2022-07-15T04:21:32;13.30;99.90
9752;DHT22;4915;51.226;5.966;2022-07-15T04:23:59;13.50;99.90
9752;DHT22;4915;51.226;5.966;2022-07-15T04:26:26;13.60;99.90
9752;DHT22;4915;51.226;5.966;2022-07-15T04:28:56;13.70;99.90
9752;DHT22;4915;51.226;5.966;2022-07-15T04:31:23;13.80;99.90
9752;DHT22;4915;51.226;5.966;2022-07-15T04:33:50;13.90;99.90
9752;DHT22;4915;51.226;5.966;2022-07-15T04:36:17;13.80;99.90
9752;DHT22;4915;51.226;5.966;2022-07-15T04:38:44;13.80;99.90
9752;DHT22;4915;51.226;5.966;2022-07-15T04:41:11;13.80;99.90
9752;DHT22;4915;51.226;5.966;2022-07-15T04:43:39;13.90;99.90
9752;DHT22;4915;51.226;5.966;2022-07-15T04:46:07;14.00;99.90
9752;DHT22;4915;51.226;5.966;2022-07-15T04:48:35;14.20;99.90
9752;DHT22;4915;51.226;5.966;2022-07-15T04:51:19;14.40;99.90
9752;DHT22;4915;51.226;5.966;2022-07-15T04:53:46;14.50;99.90
9752;DHT22;4915;51.226;5.966;2022-07-15T04:56:13;14.60;99.90
9752;DHT22;4915;51.226;5.966;2022-07-15T04:58:41;14.70;99.90
9752;DHT22;4915;51.226;5.966;2022-07-15T05:01:09;14.70;99.90
9752;DHT22;4915;51.226;5.966;2022-07-15T05:03:38;14.70;99.90
9752;DHT22;4915;51.226;5.966;2022-07-15T05:06:05;14.80;99.90
9752;DHT22;4915;51.226;5.966;2022-07-15T05:08:32;14.90;99.90
9752;DHT22;4915;51.226;5.966;2022-07-15T05:11:00;14.90;99.90
9752;DHT22;4915;51.226;5.966;2022-07-15T05:13:27;15.00;99.90
9752;DHT22;4915;51.226;5.966;2022-07-15T05:15:54;15.00;99.90
9752;DHT22;4915;51.226;5.966;2022-07-15T05:18:23;15.10;99.90
9752;DHT22;4915;51.226;5.966;2022-07-15T05:20:51;15.20;99.90
9752;DHT22;4915;51.226;5.966;2022-07-15T05:23:18;15.30;99.90
9752;DHT22;4915;51.226;5.966;2022-07-15T05:25:45;15.50;99.90
9752;DHT22;4915;51.226;5.966;2022-07-15T05:28:13;15.50;99.90
9752;DHT22;4915;51.226;5.966;2022-07-15T05:30:40;15.50;99.90
9752;DHT22;4915;51.226;5.966;2022-07-15T05:33:07;15.60;99.90
9752;DHT22;4915;51.226;5.966;2022-07-15T05:35:36;15.70;99.90
9752;DHT22;4915;51.226;5.966;2022-07-15T05:38:03;15.90;99.90
9752;DHT22;4915;51.226;5.966;2022-07-15T05:40:30;16.00;99.90
9752;DHT22;4915;51.226;5.966;2022-07-15T05:42:57;16.10;99.90
9752;DHT22;4915;51.226;5.966;2022-07-15T05:45:25;16.30;99.90
9752;DHT22;4915;51.226;5.966;2022-07-15T05:47:52;16.80;99.90
9752;DHT22;4915;51.226;5.966;2022-07-15T05:50:20;17.40;99.90
9752;DHT22;4915;51.226;5.966;2022-07-15T05:52:48;17.60;99.90
9752;DHT22;4915;51.226;5.966;2022-07-15T05:55:15;18.00;99.90
9752;DHT22;4915;51.226;5.966;2022-07-15T05:57:43;18.70;99.90
9752;DHT22;4915;51.226;5.966;2022-07-15T06:00:11;19.20;99.90
9752;DHT22;4915;51.226;5.966;2022-07-15T06:02:38;19.60;99.90
9752;DHT22;4915;51.226;5.966;2022-07-15T06:05:06;19.70;99.90
9752;DHT22;4915;51.226;5.966;2022-07-15T06:07:35;19.90;99.90
9752;DHT22;4915;51.226;5.966;2022-07-15T06:10:04;20.00;99.90
9752;DHT22;4915;51.226;5.966;2022-07-15T06:12:31;20.00;99.90
9752;DHT22;4915;51.226;5.966;2022-07-15T06:14:58;20.40;99.90
9752;DHT22;4915;51.226;5.966;2022-07-15T06:17:26;20.60;99.90
9752;DHT22;4915;51.226;5.966;2022-07-15T06:19:53;21.00;99.90
9752;DHT22;4915;51.226;5.966;2022-07-15T06:22:20;21.30;99.90
9752;DHT22;4915;51.226;5.966;2022-07-15T06:24:47;21.10;99.90
9752;DHT22;4915;51.226;5.966;2022-07-15T06:27:15;21.20;99.90
9752;DHT22;4915;51.226;5.966;2022-07-15T06:29:42;21.50;99.90
9752;DHT22;4915;51.226;5.966;2022-07-15T06:32:09;21.60;99.90
9752;DHT22;4915;51.226;5.966;2022-07-15T06:34:38;21.60;99.90
9752;DHT22;4915;51.226;5.966;2022-07-15T06:37:05;21.50;99.90
9752;DHT22;4915;51.226;5.966;2022-07-15T06:39:32;22.00;96.40
9752;DHT22;4915;51.226;5.966;2022-07-15T06:41:59;22.00;66.80
9752;DHT22;4915;51.226;5.966;2022-07-15T06:44:28;22.10;64.30
9752;DHT22;4915;51.226;5.966;2022-07-15T06:46:55;22.40;27.00
9752;DHT22;4915;51.226;5.966;2022-07-15T06:49:23;22.80;21.90
9752;DHT22;4915;51.226;5.966;2022-07-15T06:51:50;22.90;1.00
9752;DHT22;4915;51.226;5.966;2022-07-15T06:54:17;23.10;1.00
9752;DHT22;4915;51.226;5.966;2022-07-15T06:56:45;23.30;1.00
9752;DHT22;4915;51.226;5.966;2022-07-15T06:59:12;23.10;1.00
9752;DHT22;4915;51.226;5.966;2022-07-15T07:01:41;23.20;1.00
9752;DHT22;4915;51.226;5.966;2022-07-15T07:04:08;23.30;1.00
9752;DHT22;4915;51.226;5.966;2022-07-15T07:06:35;23.40;1.00
9752;DHT22;4915;51.226;5.966;2022-07-15T07:09:03;23.50;1.00
9752;DHT22;4915;51.226;5.966;2022-07-15T07:11:30;23.70;1.00
9752;DHT22;4915;51.226;5.966;2022-07-15T07:13:58;23.60;1.00
9752;DHT22;4915;51.226;5.966;2022-07-15T07:16:26;23.90;1.00
9752;DHT22;4915;51.226;5.966;2022-07-15T07:18:55;24.30;1.00
9752;DHT22;4915;51.226;5.966;2022-07-15T07:21:22;24.50;1.00
9752;DHT22;4915;51.226;5.966;2022-07-15T07:23:49;24.50;1.00
9752;DHT22;4915;51.226;5.966;2022-07-15T07:26:17;24.40;1.00
9752;DHT22;4915;51.226;5.966;2022-07-15T07:28:44;24.80;1.00
9752;DHT22;4915;51.226;5.966;2022-07-15T07:31:13;24.70;1.00
9752;DHT22;4915;51.226;5.966;2022-07-15T07:33:40;24.90;1.00
9752;DHT22;4915;51.226;5.966;2022-07-15T07:36:09;24.70;1.00
9752;DHT22;4915;51.226;5.966;2022-07-15T07:38:36;24.80;1.00
9752;DHT22;4915;51.226;5.966;2022-07-15T07:41:04;24.90;1.00
9752;DHT22;4915;51.226;5.966;2022-07-15T07:43:31;24.90;1.00
9752;DHT22;4915;51.226;5.966;2022-07-15T07:46:00;25.10;1.00
9752;DHT22;4915;51.226;5.966;2022-07-15T07:48:27;25.30;1.00
9752;DHT22;4915;51.226;5.966;2022-07-15T07:50:56;25.70;1.00
9752;DHT22;4915;51.226;5.966;2022-07-15T07:53:25;25.50;1.00
9752;DHT22;4915;51.226;5.966;2022-07-15T07:55:53;25.20;1.00
9752;DHT22;4915;51.226;5.966;2022-07-15T07:58:20;24.90;1.00
9752;DHT22;4915;51.226;5.966;2022-07-15T08:00:47;25.00;1.00
9752;DHT22;4915;51.226;5.966;2022-07-15T08:03:14;25.70;1.00
9752;DHT22;4915;51.226;5.966;2022-07-15T08:05:42;26.30;1.00
9752;DHT22;4915;51.226;5.966;2022-07-15T08:08:11;25.70;1.00
9752;DHT22;4915;51.226;5.966;2022-07-15T08:10:42;24.80;1.00
9752;DHT22;4915;51.226;5.966;2022-07-15T08:13:09;23.00;1.00
9752;DHT22;4915;51.226;5.966;2022-07-15T08:15:36;23.70;1.00
9752;DHT22;4915;51.226;5.966;2022-07-15T08:18:03;24.60;1.00
9752;DHT22;4915;51.226;5.966;2022-07-15T08:20:30;25.50;1.00
9752;DHT22;4915;51.226;5.966;2022-07-15T08:22:58;25.10;1.00
9752;DHT22;4915;51.226;5.966;2022-07-15T08:25:27;25.30;1.00
9752;DHT22;4915;51.226;5.966;2022-07-15T08:27:56;26.10;1.00
9752;DHT22;4915;51.226;5.966;2022-07-15T08:30:24;26.40;1.00
9752;DHT22;4915;51.226;5.966;2022-07-15T08:32:52;25.20;1.00
9752;DHT22;4915;51.226;5.966;2022-07-15T08:35:20;23.50;1.00
9752;DHT22;4915;51.226;5.966;2022-07-15T08:37:48;22.40;1.00
9752;DHT22;4915;51.226;5.966;2022-07-15T08:40:15;22.00;1.00
9752;DHT22;4915;51.226;5.966;2022-07-15T08:42:43;21.90;1.00
9752;DHT22;4915;51.226;5.966;2022-07-15T08:45:15;21.90;1.00
9752;DHT22;4915;51.226;5.966;2022-07-15T08:47:43;23.30;1.00
9752;DHT22;4915;51.226;5.966;2022-07-15T08:50:14;23.30;1.00
9752;DHT22;4915;51.226;5.966;2022-07-15T08:52:43;23.60;1.00
9752;DHT22;4915;51.226;5.966;2022-07-15T08:55:10;25.00;1.00
9752;DHT22;4915;51.226;5.966;2022-07-15T08:57:38;25.20;1.00
9752;DHT22;4915;51.226;5.966;2022-07-15T09:00:06;24.60;1.00
9752;DHT22;4915;51.226;5.966;2022-07-15T09:02:37;24.70;1.00
9752;DHT22;4915;51.226;5.966;2022-07-15T09:05:20;23.40;1.00
9752;DHT22;4915;51.226;5.966;2022-07-15T09:07:56;22.80;1.00
9752;DHT22;4915;51.226;5.966;2022-07-15T09:10:26;22.70;1.00
9752;DHT22;4915;51.226;5.966;2022-07-15T09:13:06;23.30;1.00
9752;DHT22;4915;51.226;5.966;2022-07-15T09:15:35;23.50;1.00
9752;DHT22;4915;51.226;5.966;2022-07-15T09:18:06;23.50;1.00
9752;DHT22;4915;51.226;5.966;2022-07-15T09:20:34;23.70;1.00
9752;DHT22;4915;51.226;5.966;2022-07-15T09:23:02;24.50;1.00
9752;DHT22;4915;51.226;5.966;2022-07-15T09:25:32;25.40;1.00
9752;DHT22;4915;51.226;5.966;2022-07-15T09:28:04;25.50;1.00
9752;DHT22;4915;51.226;5.966;2022-07-15T09:30:33;25.90;1.00
9752;DHT22;4915;51.226;5.966;2022-07-15T09:33:21;26.50;1.00
9752;DHT22;4915;51.226;5.966;2022-07-15T09:36:08;27.10;1.00
9752;DHT22;4915;51.226;5.966;2022-07-15T09:38:39;27.60;1.00
9752;DHT22;4915;51.226;5.966;2022-07-15T09:41:12;26.70;1.00
9752;DHT22;4915;51.226;5.966;2022-07-15T09:43:48;25.10;1.00
9752;DHT22;4915;51.226;5.966;2022-07-15T09:46:16;24.00;1.00
9752;DHT22;4915;51.226;5.966;2022-07-15T09:48:47;23.20;1.00
9752;DHT22;4915;51.226;5.966;2022-07-15T09:51:14;22.50;1.00
9752;DHT22;4915;51.226;5.966;2022-07-15T09:53:42;22.00;1.00
9752;DHT22;4915;51.226;5.966;2022-07-15T09:56:12;22.40;1.00
9752;DHT22;4915;51.226;5.966;2022-07-15T09:58:41;22.80;1.00
9752;DHT22;4915;51.226;5.966;2022-07-15T10:01:10;23.00;1.00
9752;DHT22;4915;51.226;5.966;2022-07-15T10:03:38;22.20;1.00
9752;DHT22;4915;51.226;5.966;2022-07-15T10:06:07;23.40;1.00
9752;DHT22;4915;51.226;5.966;2022-07-15T10:08:36;23.50;1.00
9752;DHT22;4915;51.226;5.966;2022-07-15T10:11:08;24.60;1.00
9752;DHT22;4915;51.226;5.966;2022-07-15T10:14:05;25.10;1.00
9752;DHT22;4915;51.226;5.966;2022-07-15T10:16:52;24.40;1.00
9752;DHT22;4915;51.226;5.966;2022-07-15T10:19:30;23.80;1.00
9752;DHT22;4915;51.226;5.966;2022-07-15T10:22:08;25.40;1.00
9752;DHT22;4915;51.226;5.966;2022-07-15T10:24:57;26.30;1.00
9752;DHT22;4915;51.226;5.966;2022-07-15T10:27:44;26.80;1.00
9752;DHT22;4915;51.226;5.966;2022-07-15T10:30:18;27.20;1.00
9752;DHT22;4915;51.226;5.966;2022-07-15T10:33:12;27.20;1.00
9752;DHT22;4915;51.226;5.966;2022-07-15T10:35:44;27.60;1.00
9752;DHT22;4915;51.226;5.966;2022-07-15T10:38:37;26.30;1.00
9752;DHT22;4915;51.226;5.966;2022-07-15T10:41:07;26.70;1.00
9752;DHT22;4915;51.226;5.966;2022-07-15T10:43:40;26.90;1.00
9752;DHT22;4915;51.226;5.966;2022-07-15T10:46:22;25.20;1.00
9752;DHT22;4915;51.226;5.966;2022-07-15T10:48:52;25.30;1.00
9752;DHT22;4915;51.226;5.966;2022-07-15T10:51:49;25.70;1.00
9752;DHT22;4915;51.226;5.966;2022-07-15T10:54:40;27.00;1.00
9752;DHT22;4915;51.226;5.966;2022-07-15T10:57:08;27.80;1.00
9752;DHT22;4915;51.226;5.966;2022-07-15T10:59:37;28.10;1.00
9752;DHT22;4915;51.226;5.966;2022-07-15T11:02:12;28.20;1.00
9752;DHT22;4915;51.226;5.966;2022-07-15T11:04:40;26.80;1.00
9752;DHT22;4915;51.226;5.966;2022-07-15T11:07:24;26.00;1.00
9752;DHT22;4915;51.226;5.966;2022-07-15T11:09:55;25.70;1.00
9752;DHT22;4915;51.226;5.966;2022-07-15T11:12:24;25.70;1.00
9752;DHT22;4915;51.226;5.966;2022-07-15T11:15:13;26.30;1.00
9752;DHT22;4915;51.226;5.966;2022-07-15T11:17:42;26.80;1.00
9752;DHT22;4915;51.226;5.966;2022-07-15T11:20:10;27.60;1.00
9752;DHT22;4915;51.226;5.966;2022-07-15T11:22:39;28.40;1.00
9752;DHT22;4915;51.226;5.966;2022-07-15T11:25:16;28.70;1.00
9752;DHT22;4915;51.226;5.966;2022-07-15T11:27:55;28.20;1.00
9752;DHT22;4915;51.226;5.966;2022-07-15T11:30:24;26.60;1.00
9752;DHT22;4915;51.226;5.966;2022-07-15T11:32:55;25.70;1.00
9752;DHT22;4915;51.226;5.966;2022-07-15T11:35:23;25.20;1.00
9752;DHT22;4915;51.226;5.966;2022-07-15T11:38:00;24.90;1.00
9752;DHT22;4915;51.226;5.966;2022-07-15T11:40:28;25.80;1.00
9752;DHT22;4915;51.226;5.966;2022-07-15T11:43:15;27.10;1.00
9752;DHT22;4915;51.226;5.966;2022-07-15T11:46:02;27.90;1.00
9752;DHT22;4915;51.226;5.966;2022-07-15T11:48:35;26.90;1.00
9752;DHT22;4915;51.226;5.966;2022-07-15T11:51:04;25.80;1.00
9752;DHT22;4915;51.226;5.966;2022-07-15T11:53:36;26.10;1.00
9752;DHT22;4915;51.226;5.966;2022-07-15T11:56:03;24.90;1.00
9752;DHT22;4915;51.226;5.966;2022-07-15T11:58:33;24.90;1.00
9752;DHT22;4915;51.226;5.966;2022-07-15T12:01:04;25.80;1.00
9752;DHT22;4915;51.226;5.966;2022-07-15T12:03:36;26.80;1.00
9752;DHT22;4915;51.226;5.966;2022-07-15T12:06:08;27.90;1.00
9752;DHT22;4915;51.226;5.966;2022-07-15T12:08:47;27.70;1.00
9752;DHT22;4915;51.226;5.966;2022-07-15T12:11:17;26.90;1.00
9752;DHT22;4915;51.226;5.966;2022-07-15T12:13:47;26.40;1.00
9752;DHT22;4915;51.226;5.966;2022-07-15T12:16:19;26.90;1.00
9752;DHT22;4915;51.226;5.966;2022-07-15T12:18:48;26.40;1.00
9752;DHT22;4915;51.226;5.966;2022-07-15T12:21:16;27.10;1.00
9752;DHT22;4915;51.226;5.966;2022-07-15T12:23:57;27.00;1.00
9752;DHT22;4915;51.226;5.966;2022-07-15T12:26:24;27.20;1.00
9752;DHT22;4915;51.226;5.966;2022-07-15T12:28:54;26.50;1.00
9752;DHT22;4915;51.226;5.966;2022-07-15T12:31:26;26.20;1.00
9752;DHT22;4915;51.226;5.966;2022-07-15T12:33:53;25.90;1.00
9752;DHT22;4915;51.226;5.966;2022-07-15T12:36:22;25.30;1.00
9752;DHT22;4915;51.226;5.966;2022-07-15T12:39:11;25.10;1.00
9752;DHT22;4915;51.226;5.966;2022-07-15T12:41:40;24.70;1.00
9752;DHT22;4915;51.226;5.966;2022-07-15T12:44:08;24.40;1.00
9752;DHT22;4915;51.226;5.966;2022-07-15T12:46:51;24.20;1.00
9752;DHT22;4915;51.226;5.966;2022-07-15T12:49:44;24.90;1.00
9752;DHT22;4915;51.226;5.966;2022-07-15T12:52:29;26.50;1.00
9752;DHT22;4915;51.226;5.966;2022-07-15T12:54:58;27.40;1.00
9752;DHT22;4915;51.226;5.966;2022-07-15T12:57:31;27.60;1.00
9752;DHT22;4915;51.226;5.966;2022-07-15T13:00:00;27.20;1.00
9752;DHT22;4915;51.226;5.966;2022-07-15T13:02:31;25.70;1.00
9752;DHT22;4915;51.226;5.966;2022-07-15T13:04:58;24.40;1.00
9752;DHT22;4915;51.226;5.966;2022-07-15T13:07:25;23.60;1.00
9752;DHT22;4915;51.226;5.966;2022-07-15T13:09:52;23.50;1.00
9752;DHT22;4915;51.226;5.966;2022-07-15T13:12:19;23.60;1.00
9752;DHT22;4915;51.226;5.966;2022-07-15T13:14:46;24.00;1.00
9752;DHT22;4915;51.226;5.966;2022-07-15T13:17:13;24.70;1.00
9752;DHT22;4915;51.226;5.966;2022-07-15T13:19:42;25.60;1.00
9752;DHT22;4915;51.226;5.966;2022-07-15T13:22:09;26.60;1.00
9752;DHT22;4915;51.226;5.966;2022-07-15T13:24:36;26.20;1.00
9752;DHT22;4915;51.226;5.966;2022-07-15T13:27:03;26.20;1.00
9752;DHT22;4915;51.226;5.966;2022-07-15T13:29:30;27.20;1.00
9752;DHT22;4915;51.226;5.966;2022-07-15T13:31:57;26.50;1.00
9752;DHT22;4915;51.226;5.966;2022-07-15T13:34:24;25.40;1.00
9752;DHT22;4915;51.226;5.966;2022-07-15T13:36:53;24.80;1.00
9752;DHT22;4915;51.226;5.966;2022-07-15T13:39:20;24.20;1.00
9752;DHT22;4915;51.226;5.966;2022-07-15T13:41:47;23.80;1.00
9752;DHT22;4915;51.226;5.966;2022-07-15T13:44:14;24.00;1.00
9752;DHT22;4915;51.226;5.966;2022-07-15T13:46:41;23.80;1.00
9752;DHT22;4915;51.226;5.966;2022-07-15T13:49:08;23.60;1.00
9752;DHT22;4915;51.226;5.966;2022-07-15T13:51:35;24.10;1.00
9752;DHT22;4915;51.226;5.966;2022-07-15T13:54:03;23.80;1.00
9752;DHT22;4915;51.226;5.966;2022-07-15T13:56:30;23.70;1.00
9752;DHT22;4915;51.226;5.966;2022-07-15T13:58:57;23.80;1.00
9752;DHT22;4915;51.226;5.966;2022-07-15T14:01:27;24.00;1.00
9752;DHT22;4915;51.226;5.966;2022-07-15T14:03:56;24.10;1.00
9752;DHT22;4915;51.226;5.966;2022-07-15T14:06:23;24.20;1.00
9752;DHT22;4915;51.226;5.966;2022-07-15T14:08:51;24.10;1.00
9752;DHT22;4915;51.226;5.966;2022-07-15T14:11:19;23.70;1.00
9752;DHT22;4915;51.226;5.966;2022-07-15T14:13:46;23.50;1.00
9752;DHT22;4915;51.226;5.966;2022-07-15T14:16:13;23.70;1.00
9752;DHT22;4915;51.226;5.966;2022-07-15T14:18:40;23.50;1.00
9752;DHT22;4915;51.226;5.966;2022-07-15T14:21:15;23.20;1.00
9752;DHT22;4915;51.226;5.966;2022-07-15T14:23:43;23.10;1.00
9752;DHT22;4915;51.226;5.966;2022-07-15T14:26:11;23.30;1.00
9752;DHT22;4915;51.226;5.966;2022-07-15T14:28:41;22.90;1.00
9752;DHT22;4915;51.226;5.966;2022-07-15T14:31:09;23.00;1.00
9752;DHT22;4915;51.226;5.966;2022-07-15T14:33:38;23.40;1.00
9752;DHT22;4915;51.226;5.966;2022-07-15T14:36:06;23.90;1.00
9752;DHT22;4915;51.226;5.966;2022-07-15T14:38:33;24.20;1.00
9752;DHT22;4915;51.226;5.966;2022-07-15T14:41:00;24.30;1.00
9752;DHT22;4915;51.226;5.966;2022-07-15T14:43:27;24.20;1.00
9752;DHT22;4915;51.226;5.966;2022-07-15T14:45:56;24.20;1.00
9752;DHT22;4915;51.226;5.966;2022-07-15T14:48:23;24.40;1.00
9752;DHT22;4915;51.226;5.966;2022-07-15T14:50:50;24.60;1.00
9752;DHT22;4915;51.226;5.966;2022-07-15T14:53:17;24.20;1.00
9752;DHT22;4915;51.226;5.966;2022-07-15T14:55:44;23.60;1.00
9752;DHT22;4915;51.226;5.966;2022-07-15T14:58:12;23.40;1.00
9752;DHT22;4915;51.226;5.966;2022-07-15T15:00:39;23.50;1.00
9752;DHT22;4915;51.226;5.966;2022-07-15T15:03:08;23.50;1.00
9752;DHT22;4915;51.226;5.966;2022-07-15T15:05:35;23.60;1.00
9752;DHT22;4915;51.226;5.966;2022-07-15T15:08:02;23.80;1.00
9752;DHT22;4915;51.226;5.966;2022-07-15T15:10:29;24.60;1.00
9752;DHT22;4915;51.226;5.966;2022-07-15T15:12:56;25.00;1.00
9752;DHT22;4915;51.226;5.966;2022-07-15T15:15:23;25.00;1.00
9752;DHT22;4915;51.226;5.966;2022-07-15T15:17:51;25.10;1.00
9752;DHT22;4915;51.226;5.966;2022-07-15T15:20:20;25.20;1.00
9752;DHT22;4915;51.226;5.966;2022-07-15T15:22:47;25.00;1.00
9752;DHT22;4915;51.226;5.966;2022-07-15T15:25:14;25.10;1.00
9752;DHT22;4915;51.226;5.966;2022-07-15T15:28:01;25.00;1.00
9752;DHT22;4915;51.226;5.966;2022-07-15T15:30:28;25.00;1.00
9752;DHT22;4915;51.226;5.966;2022-07-15T15:32:55;25.10;1.00
9752;DHT22;4915;51.226;5.966;2022-07-15T15:35:24;25.10;1.00
9752;DHT22;4915;51.226;5.966;2022-07-15T15:37:51;25.10;1.00
9752;DHT22;4915;51.226;5.966;2022-07-15T15:40:18;25.00;1.00
9752;DHT22;4915;51.226;5.966;2022-07-15T15:42:45;25.00;1.00
9752;DHT22;4915;51.226;5.966;2022-07-15T15:45:13;24.80;1.00
9752;DHT22;4915;51.226;5.966;2022-07-15T15:47:40;24.70;1.00
9752;DHT22;4915;51.226;5.966;2022-07-15T15:50:07;24.70;1.00
9752;DHT22;4915;51.226;5.966;2022-07-15T15:52:36;24.80;1.00
9752;DHT22;4915;51.226;5.966;2022-07-15T15:55:04;24.70;1.00
9752;DHT22;4915;51.226;5.966;2022-07-15T15:57:31;24.50;1.00
9752;DHT22;4915;51.226;5.966;2022-07-15T15:59:58;24.30;1.00
9752;DHT22;4915;51.226;5.966;2022-07-15T16:02:25;23.90;1.00
9752;DHT22;4915;51.226;5.966;2022-07-15T16:04:52;23.70;1.00
9752;DHT22;4915;51.226;5.966;2022-07-15T16:07:19;23.70;1.00
9752;DHT22;4915;51.226;5.966;2022-07-15T16:09:48;23.80;1.00
9752;DHT22;4915;51.226;5.966;2022-07-15T16:12:15;23.90;1.00
9752;DHT22;4915;51.226;5.966;2022-07-15T16:14:42;24.00;1.00
9752;DHT22;4915;51.226;5.966;2022-07-15T16:17:09;24.20;1.00
9752;DHT22;4915;51.226;5.966;2022-07-15T16:19:38;24.30;1.00
9752;DHT22;4915;51.226;5.966;2022-07-15T16:22:05;24.10;1.00
9752;DHT22;4915;51.226;5.966;2022-07-15T16:24:52;23.90;1.00
9752;DHT22;4915;51.226;5.966;2022-07-15T16:27:19;23.90;1.00